createdAt,value
2023-01-18T00:01:01.289Z,95353.94
2023-01-18T00:03:27.882Z,95355.50
2023-01-18T00:05:54.657Z,95359.53
2023-01-18T00:08:21.217Z,95360.59
2023-01-18T00:10:47.780Z,95359.34
2023-01-18T00:13:14.301Z,95359.34
2023-01-18T00:15:40.879Z,95363.81
2023-01-18T00:18:07.400Z,95358.72
2023-01-18T00:20:33.992Z,95360.59
2023-01-18T00:23:01.869Z,95363.28
2023-01-18T00:25:28.613Z,95360.94
2023-01-18T00:27:55.422Z,95365.69
2023-01-18T00:30:24.237Z,95368.41
2023-01-18T00:32:55.382Z,95370.03
2023-01-18T00:35:22.334Z,95367.41
2023-01-18T00:37:49.277Z,95370.53
2023-01-18T00:40:15.835Z,95371.84
2023-01-18T00:43:01.024Z,95374.50
2023-01-18T00:45:27.876Z,95370.09
2023-01-18T00:47:54.424Z,95373.28
2023-01-18T00:50:22.525Z,95369.25
2023-01-18T00:52:49.784Z,95371.03
2023-01-18T00:55:16.918Z,95366.41
2023-01-18T00:57:43.470Z,95376.16
2023-01-18T01:00:11.311Z,95372.47
2023-01-18T01:02:41.618Z,95373.44
2023-01-18T01:05:36.991Z,95374.22
2023-01-18T01:08:03.921Z,95385.66
2023-01-18T01:10:30.507Z,95380.66
2023-01-18T01:13:15.882Z,95384.00
2023-01-18T01:16:01.122Z,95381.47
2023-01-18T01:18:46.434Z,95388.78
2023-01-18T01:21:31.716Z,95386.84
2023-01-18T01:24:16.752Z,95391.25
2023-01-18T01:26:43.794Z,95393.72
2023-01-18T01:29:10.346Z,95406.97
2023-01-18T01:31:38.859Z,95401.63
2023-01-18T01:34:05.400Z,95404.41
2023-01-18T01:36:31.933Z,95410.81
2023-01-18T01:38:58.566Z,95413.03
2023-01-18T01:41:26.852Z,95411.81
2023-01-18T01:44:04.776Z,95412.03
2023-01-18T01:46:50.145Z,95403.00
2023-01-18T01:49:24.130Z,95409.78
2023-01-18T01:51:52.098Z,95418.75
2023-01-18T01:54:21.341Z,95414.34
2023-01-18T01:56:47.919Z,95417.78
2023-01-18T01:59:14.782Z,95415.63
2023-01-18T02:01:44.065Z,95426.81
2023-01-18T02:04:10.693Z,95422.97
2023-01-18T02:06:38.015Z,95429.59
2023-01-18T02:09:08.658Z,95432.03
2023-01-18T02:11:35.414Z,95428.47
2023-01-18T02:14:03.405Z,95434.53
2023-01-18T02:16:34.216Z,95442.66
2023-01-18T02:19:19.824Z,95440.78
2023-01-18T02:22:09.012Z,95440.56
2023-01-18T02:24:40.054Z,95441.00
2023-01-18T02:27:18.334Z,95443.63
2023-01-18T02:29:57.077Z,95439.31
2023-01-18T02:32:32.832Z,95437.19
2023-01-18T02:35:08.143Z,95449.03
2023-01-18T02:37:53.958Z,95448.78
2023-01-18T02:40:32.087Z,95449.09
2023-01-18T02:43:17.938Z,95451.94
2023-01-18T02:46:04.404Z,95447.38
2023-01-18T02:48:32.525Z,95452.53
2023-01-18T02:50:59.061Z,95456.59
2023-01-18T02:53:25.609Z,95460.66
2023-01-18T02:55:54.261Z,95462.44
2023-01-18T02:58:23.881Z,95462.28
2023-01-18T03:00:55.231Z,95463.38
2023-01-18T03:03:22.133Z,95462.91
2023-01-18T03:05:48.663Z,95459.38
2023-01-18T03:08:33.334Z,95455.69
2023-01-18T03:11:00.941Z,95452.31
2023-01-18T03:13:48.334Z,95460.41
2023-01-18T03:16:22.883Z,95459.28
2023-01-18T03:19:01.741Z,95463.22
2023-01-18T03:21:30.269Z,95467.03
2023-01-18T03:23:56.807Z,95476.75
2023-01-18T03:26:23.383Z,95480.06
2023-01-18T03:29:10.573Z,95481.78
2023-01-18T03:32:03.443Z,95478.66
2023-01-18T03:34:39.207Z,95482.94
2023-01-18T03:37:08.296Z,95475.75
2023-01-18T03:39:45.297Z,95478.72
2023-01-18T03:42:19.904Z,95479.16
2023-01-18T03:44:48.085Z,95482.38
2023-01-18T03:47:14.602Z,95489.78
2023-01-18T03:49:41.156Z,95495.31
2023-01-18T03:52:17.106Z,95492.44
2023-01-18T03:54:56.307Z,95497.66
2023-01-18T03:57:32.325Z,95505.47
2023-01-18T03:59:59.183Z,95505.78
2023-01-18T04:02:26.332Z,95505.03
2023-01-18T04:04:57.592Z,95509.44
2023-01-18T04:07:25.133Z,95505.81
2023-01-18T04:09:51.864Z,95509.69
2023-01-18T04:12:18.601Z,95507.28
2023-01-18T04:14:45.132Z,95505.47
2023-01-18T04:17:11.673Z,95512.09
2023-01-18T04:19:40.591Z,95507.59
2023-01-18T04:22:09.693Z,95508.22
2023-01-18T04:24:36.433Z,95506.16
2023-01-18T04:27:03.200Z,95517.22
2023-01-18T04:29:29.764Z,95520.06
2023-01-18T04:31:56.317Z,95511.16
2023-01-18T04:34:25.104Z,95520.63
2023-01-18T04:36:51.853Z,95519.91
2023-01-18T04:39:18.732Z,95524.91
2023-01-18T04:41:45.369Z,95524.44
2023-01-18T04:44:11.900Z,95529.69
2023-01-18T04:46:38.669Z,95538.28
2023-01-18T04:49:05.976Z,95536.06
2023-01-18T04:51:32.692Z,95538.56
2023-01-18T04:53:59.720Z,95554.69
2023-01-18T04:56:26.297Z,95553.50
2023-01-18T04:58:54.110Z,95562.59
2023-01-18T05:01:20.774Z,95551.28
2023-01-18T05:03:47.469Z,95567.75
2023-01-18T05:06:15.272Z,95566.69
2023-01-18T05:08:42.583Z,95575.28
2023-01-18T05:11:10.095Z,95580.81
2023-01-18T05:13:36.670Z,95585.78
2023-01-18T05:16:06.003Z,95588.34
2023-01-18T05:18:32.836Z,95600.22
2023-01-18T05:20:59.374Z,95608.91
2023-01-18T05:23:25.941Z,95611.69
2023-01-18T05:25:53.266Z,95614.94
2023-01-18T05:28:19.813Z,95630.88
2023-01-18T05:30:48.156Z,95629.75
2023-01-18T05:33:14.732Z,95639.16
2023-01-18T05:35:41.281Z,95637.06
2023-01-18T05:38:07.848Z,95650.72
2023-01-18T05:40:34.393Z,95641.59
2023-01-18T05:43:01.214Z,95661.63
2023-01-18T05:45:27.934Z,95657.41
2023-01-18T05:47:54.662Z,95669.41
2023-01-18T05:50:21.209Z,95665.38
2023-01-18T05:52:47.798Z,95678.06
2023-01-18T05:55:15.936Z,95677.25
2023-01-18T05:57:42.810Z,95677.91
2023-01-18T06:00:09.775Z,95677.25
2023-01-18T06:02:39.118Z,95689.47
2023-01-18T06:05:05.897Z,95696.63
2023-01-18T06:07:32.465Z,95708.69
2023-01-18T06:09:59.274Z,95716.47
2023-01-18T06:12:25.814Z,95722.50
2023-01-18T06:14:52.370Z,95727.38
2023-01-18T06:17:19.034Z,95732.75
2023-01-18T06:19:45.737Z,95734.22
2023-01-18T06:22:12.691Z,95741.38
2023-01-18T06:24:39.215Z,95751.00
2023-01-18T06:27:05.771Z,95748.22
2023-01-18T06:29:32.415Z,95758.31
2023-01-18T06:31:58.976Z,95767.13
2023-01-18T06:34:25.696Z,95770.00
2023-01-18T06:36:52.245Z,95776.22
2023-01-18T06:39:18.887Z,95776.22
2023-01-18T06:41:45.468Z,95777.72
2023-01-18T06:44:12.007Z,95780.63
2023-01-18T06:46:38.579Z,95784.34
2023-01-18T06:49:05.172Z,95790.03
2023-01-18T06:51:31.767Z,95790.53
2023-01-18T06:53:58.731Z,95795.91
2023-01-18T06:56:26.913Z,95797.38
2023-01-18T06:58:55.892Z,95804.88
2023-01-18T07:01:22.497Z,95808.13
2023-01-18T07:03:49.145Z,95814.22
2023-01-18T07:06:18.827Z,95818.97
2023-01-18T07:08:45.391Z,95814.94
2023-01-18T07:11:15.096Z,95823.88
2023-01-18T07:13:44.160Z,95821.63
2023-01-18T07:16:18.174Z,95822.75
2023-01-18T07:18:46.943Z,95834.75
2023-01-18T07:21:15.270Z,95840.97
2023-01-18T07:23:42.437Z,95856.09
2023-01-18T07:26:10.024Z,95855.91
2023-01-18T07:28:36.963Z,95859.38
2023-01-18T07:31:04.076Z,95863.81
2023-01-18T07:33:30.802Z,95868.94
2023-01-18T07:35:58.285Z,95871.53
2023-01-18T07:38:25.011Z,95881.19
2023-01-18T07:40:57.639Z,95894.59
2023-01-18T07:43:24.668Z,95894.56
2023-01-18T07:45:54.564Z,95899.78
2023-01-18T07:48:22.011Z,95909.59
2023-01-18T07:51:01.912Z,95903.53
2023-01-18T07:53:31.240Z,95915.91
2023-01-18T07:56:01.214Z,95914.09
2023-01-18T07:58:28.009Z,95921.34
2023-01-18T08:00:54.588Z,95924.50
2023-01-18T08:03:21.512Z,95934.78
2023-01-18T08:05:48.242Z,95940.56
2023-01-18T08:08:18.473Z,95945.09
2023-01-18T08:10:45.147Z,95944.44
2023-01-18T08:13:11.762Z,95945.97
2023-01-18T08:15:38.561Z,95945.50
2023-01-18T08:18:05.483Z,95960.31
2023-01-18T08:20:32.287Z,95962.56
2023-01-18T08:22:59.683Z,95968.78
2023-01-18T08:25:30.203Z,95971.78
2023-01-18T08:28:00.257Z,95975.94
2023-01-18T08:30:28.359Z,95983.41
2023-01-18T08:32:56.188Z,95983.69
2023-01-18T08:35:23.888Z,95999.03
2023-01-18T08:37:53.299Z,96000.50
2023-01-18T08:40:20.887Z,96002.44
2023-01-18T08:42:47.432Z,96001.72
2023-01-18T08:45:14.339Z,96019.16
2023-01-18T08:47:43.660Z,96022.06
2023-01-18T08:50:10.564Z,96028.78
2023-01-18T08:52:37.121Z,96037.94
2023-01-18T08:55:04.706Z,96040.84
2023-01-18T08:57:31.380Z,96040.19
2023-01-18T08:59:58.174Z,96052.94
2023-01-18T09:02:25.057Z,96057.56
2023-01-18T09:04:52.810Z,96052.78
2023-01-18T09:07:19.388Z,96058.50
2023-01-18T09:09:46.203Z,96063.72
2023-01-18T09:12:12.978Z,96069.31
2023-01-18T09:14:40.227Z,96074.09
2023-01-18T09:17:06.788Z,96074.59
2023-01-18T09:19:33.763Z,96085.03
2023-01-18T09:22:00.924Z,96091.88
2023-01-18T09:24:27.498Z,96090.06
2023-01-18T09:26:54.186Z,96096.81
2023-01-18T09:29:20.935Z,96087.84
2023-01-18T09:31:49.343Z,96102.97
2023-01-18T09:34:19.754Z,96112.91
2023-01-18T09:36:47.259Z,96116.66
2023-01-18T09:39:14.144Z,96121.56
2023-01-18T09:41:43.019Z,96130.06
2023-01-18T09:44:21.730Z,96139.00
2023-01-18T09:46:51.841Z,96146.31
2023-01-18T09:49:21.296Z,96146.69
2023-01-18T09:52:00.574Z,96158.19
2023-01-18T09:54:30.450Z,96144.94
2023-01-18T09:57:16.563Z,96161.41
2023-01-18T09:59:46.367Z,96156.41
2023-01-18T10:02:20.052Z,96161.53
2023-01-18T10:04:48.003Z,96161.19
2023-01-18T10:07:18.144Z,96169.59
2023-01-18T10:09:49.829Z,96171.56
2023-01-18T10:12:31.798Z,96169.53
2023-01-18T10:15:01.387Z,96175.38
2023-01-18T10:17:38.356Z,96185.19
2023-01-18T10:20:20.353Z,96184.16
2023-01-18T10:22:49.464Z,96190.31
2023-01-18T10:25:19.405Z,96185.59
2023-01-18T10:27:50.088Z,96187.56
2023-01-18T10:30:39.688Z,96192.66
2023-01-18T10:33:22.093Z,96197.47
2023-01-18T10:35:50.110Z,96198.28
2023-01-18T10:38:18.051Z,96197.63
2023-01-18T10:40:46.538Z,96208.91
2023-01-18T10:43:15.635Z,96211.06
2023-01-18T10:45:42.279Z,96213.47
2023-01-18T10:48:17.905Z,96211.22
2023-01-18T10:50:45.765Z,96213.38
2023-01-18T10:53:24.311Z,96220.38
2023-01-18T10:55:54.282Z,96223.16
2023-01-18T10:58:24.422Z,96226.41
2023-01-18T11:00:55.217Z,96226.81
2023-01-18T11:03:22.828Z,96236.50
2023-01-18T11:05:49.426Z,96228.06
2023-01-18T11:08:21.570Z,96234.44
2023-01-18T11:10:58.193Z,96241.75
2023-01-18T11:13:25.699Z,96237.94
2023-01-18T11:16:00.298Z,96243.88
2023-01-18T11:18:33.205Z,96243.59
2023-01-18T11:21:00.005Z,96247.34
2023-01-18T11:23:30.531Z,96251.50
2023-01-18T11:25:57.242Z,96249.31
2023-01-18T11:28:23.827Z,96253.56
2023-01-18T11:30:57.565Z,96261.97
2023-01-18T11:33:25.793Z,96267.63
2023-01-18T11:35:56.714Z,96271.41
2023-01-18T11:38:26.617Z,96274.53
2023-01-18T11:41:11.993Z,96268.13
2023-01-18T11:43:39.660Z,96273.66
2023-01-18T11:46:24.808Z,96271.13
2023-01-18T11:48:58.951Z,96286.28
2023-01-18T11:51:25.464Z,96272.88
2023-01-18T11:53:54.806Z,96284.59
2023-01-18T11:56:27.647Z,96276.31
2023-01-18T11:58:54.265Z,96283.47
2023-01-18T12:01:41.522Z,96286.50
2023-01-18T12:04:08.142Z,96295.91
2023-01-18T12:06:54.612Z,96293.06
2023-01-18T12:09:32.655Z,96298.06
2023-01-18T12:12:18.223Z,96302.53
2023-01-18T12:14:49.159Z,96313.22
2023-01-18T12:17:25.042Z,96311.84
2023-01-18T12:19:58.712Z,96319.84
2023-01-18T12:22:36.539Z,96316.66
2023-01-18T12:25:21.399Z,96318.53
2023-01-18T12:28:07.572Z,96326.75
2023-01-18T12:30:34.257Z,96332.56
2023-01-18T12:33:05.308Z,96336.84
2023-01-18T12:35:42.421Z,96342.91
2023-01-18T12:38:08.933Z,96346.53
2023-01-18T12:40:44.262Z,96351.78
2023-01-18T12:43:11.248Z,96355.28
2023-01-18T12:45:50.074Z,96349.88
2023-01-18T12:48:16.840Z,96359.94
2023-01-18T12:50:43.777Z,96363.13
2023-01-18T12:53:22.578Z,96363.81
2023-01-18T12:55:49.967Z,96374.84
2023-01-18T12:58:18.726Z,96365.25
2023-01-18T13:00:47.187Z,96374.56
2023-01-18T13:03:14.801Z,96369.25
2023-01-18T13:05:52.681Z,96379.81
2023-01-18T13:08:24.002Z,96387.09
2023-01-18T13:10:50.671Z,96380.63
2023-01-18T13:13:18.974Z,96384.41
2023-01-18T13:15:47.809Z,96393.47
2023-01-18T13:18:15.998Z,96398.38
2023-01-18T13:20:58.424Z,96401.16
2023-01-18T13:23:27.455Z,96402.50
2023-01-18T13:26:01.080Z,96407.41
2023-01-18T13:28:27.682Z,96406.97
2023-01-18T13:30:56.710Z,96416.94
2023-01-18T13:33:24.187Z,96414.00
2023-01-18T13:36:21.624Z,96413.38
2023-01-18T13:38:52.372Z,96426.50
2023-01-18T13:41:25.881Z,96425.69
2023-01-18T13:43:53.420Z,96441.38
2023-01-18T13:46:21.085Z,96446.66
2023-01-18T13:48:47.693Z,96448.75
2023-01-18T13:51:34.500Z,96447.22
2023-01-18T13:54:01.076Z,96451.97
2023-01-18T13:56:28.491Z,96456.28
2023-01-18T13:58:59.076Z,96460.94
2023-01-18T14:01:26.724Z,96465.16
2023-01-18T14:03:54.267Z,96463.06
2023-01-18T14:06:25.717Z,96472.16
2023-01-18T14:08:53.322Z,96477.69
2023-01-18T14:11:27.173Z,96480.09
2023-01-18T14:13:53.693Z,96481.22
2023-01-18T14:16:24.234Z,96491.63
2023-01-18T14:18:52.179Z,96495.84
2023-01-18T14:21:22.297Z,96503.53
2023-01-18T14:23:57.823Z,96505.72
2023-01-18T14:26:26.633Z,96516.47
2023-01-18T14:28:54.355Z,96517.34
2023-01-18T14:31:23.057Z,96525.94
2023-01-18T14:33:50.101Z,96521.44
2023-01-18T14:36:20.848Z,96530.28
2023-01-18T14:38:47.480Z,96528.78
2023-01-18T14:41:16.988Z,96538.75
2023-01-18T14:43:49.569Z,96541.28
2023-01-18T14:46:16.844Z,96548.44
2023-01-18T14:48:46.611Z,96546.31
2023-01-18T14:51:17.195Z,96552.53
2023-01-18T14:53:49.457Z,96550.75
2023-01-18T14:56:16.196Z,96559.81
2023-01-18T14:58:43.771Z,96574.66
2023-01-18T15:01:43.955Z,96568.00
2023-01-18T15:04:21.318Z,96580.38
2023-01-18T15:06:49.018Z,96585.47
2023-01-18T15:09:15.629Z,96590.81
2023-01-18T15:11:42.266Z,96591.84
2023-01-18T15:14:17.804Z,96601.09
2023-01-18T15:16:44.812Z,96602.47
2023-01-18T15:19:16.916Z,96605.34
2023-01-18T15:21:43.683Z,96610.88
2023-01-18T15:24:12.566Z,96615.53
2023-01-18T15:26:46.908Z,96620.78
2023-01-18T15:29:13.609Z,96616.59
2023-01-18T15:31:53.573Z,96628.88
2023-01-18T15:34:30.412Z,96632.53
2023-01-18T15:36:57.615Z,96634.47
2023-01-18T15:39:24.263Z,96636.00
2023-01-18T15:41:50.801Z,96642.13
2023-01-18T15:44:32.444Z,96639.56
2023-01-18T15:46:58.980Z,96649.63
2023-01-18T15:49:25.604Z,96657.34
2023-01-18T15:51:57.213Z,96666.50
2023-01-18T15:54:27.546Z,96669.81
2023-01-18T15:56:56.204Z,96672.16
2023-01-18T15:59:23.376Z,96670.91
2023-01-18T16:02:08.749Z,96679.66
2023-01-18T16:04:35.531Z,96683.09
2023-01-18T16:07:22.034Z,96683.63
2023-01-18T16:09:48.607Z,96689.41
2023-01-18T16:12:32.178Z,96690.13
2023-01-18T16:14:58.844Z,96695.97
2023-01-18T16:17:27.334Z,96704.78
2023-01-18T16:19:54.440Z,96700.66
2023-01-18T16:22:22.370Z,96711.91
2023-01-18T16:24:50.894Z,96721.06
2023-01-18T16:27:19.161Z,96718.47
2023-01-18T16:29:46.660Z,96716.41
2023-01-18T16:32:27.706Z,96719.59
2023-01-18T16:34:58.279Z,96730.53
2023-01-18T16:37:24.922Z,96729.56
2023-01-18T16:39:51.706Z,96733.41
2023-01-18T16:42:19.918Z,96735.34
2023-01-18T17:04:27.984Z,96754.16
2023-01-18T17:07:00.410Z,96755.94
2023-01-18T17:09:47.930Z,96759.66
2023-01-18T17:12:18.145Z,96761.16
2023-01-18T17:14:44.717Z,96768.41
2023-01-18T17:17:11.516Z,96770.34
2023-01-18T17:19:38.357Z,96775.69
2023-01-18T17:22:07.587Z,96787.88
2023-01-18T17:24:34.132Z,96785.41
2023-01-18T17:27:01.382Z,96795.56
2023-01-18T17:29:28.007Z,96797.50
2023-01-18T17:31:54.616Z,96801.44
2023-01-18T17:34:27.144Z,96803.25
2023-01-18T17:36:55.217Z,96802.53
2023-01-18T17:39:24.976Z,96804.22
2023-01-18T17:41:58.671Z,96808.59
2023-01-18T17:44:36.846Z,96809.00
2023-01-18T17:47:03.917Z,96814.22
2023-01-18T17:49:32.501Z,96819.56
2023-01-18T17:51:59.181Z,96830.06
2023-01-18T17:54:26.189Z,96835.59
2023-01-18T17:56:53.493Z,96842.47
2023-01-18T17:59:20.337Z,96838.22
2023-01-18T18:01:49.293Z,96845.38
2023-01-18T18:04:16.253Z,96846.44
2023-01-18T18:06:49.725Z,96852.72
2023-01-18T18:09:20.543Z,96859.28
2023-01-18T18:11:47.434Z,96862.03
2023-01-18T18:14:14.430Z,96866.53
2023-01-18T18:16:43.444Z,96869.13
2023-01-18T18:19:13.205Z,96868.19
2023-01-18T18:21:39.784Z,96878.84
2023-01-18T18:24:06.468Z,96877.94
2023-01-18T18:26:33.171Z,96882.09
2023-01-18T18:29:00.273Z,96890.91
2023-01-18T18:31:26.891Z,96885.06
2023-01-18T18:33:53.505Z,96898.22
2023-01-18T18:36:21.364Z,96893.81
2023-01-18T18:38:47.905Z,96895.38
2023-01-18T18:41:14.441Z,96900.69
2023-01-18T18:43:40.992Z,96906.94
2023-01-18T18:46:07.608Z,96916.94
2023-01-18T18:48:34.328Z,96921.19
2023-01-18T18:51:00.899Z,96925.16
2023-01-18T18:53:37.524Z,96927.88
2023-01-18T18:56:07.227Z,96934.06
2023-01-18T18:58:34.198Z,96944.47
2023-01-18T19:01:01.016Z,96940.97
2023-01-18T19:03:27.696Z,96953.16
2023-01-18T19:05:54.304Z,96953.78
2023-01-18T19:08:20.918Z,96952.69
2023-01-18T19:10:50.929Z,96962.25
2023-01-18T19:13:18.848Z,96956.63
2023-01-18T19:15:48.921Z,96960.31
2023-01-18T19:18:16.995Z,96968.75
2023-01-18T19:20:44.157Z,96970.50
2023-01-18T19:23:10.983Z,96960.50
2023-01-18T19:25:38.140Z,96967.72
2023-01-18T19:28:04.913Z,96979.00
2023-01-18T19:30:33.436Z,96984.22
2023-01-18T19:33:00.380Z,96991.66
2023-01-18T19:35:27.158Z,96985.19
2023-01-18T19:37:53.878Z,96987.63
2023-01-18T19:40:21.053Z,96991.53
2023-01-18T19:42:59.823Z,96987.16
2023-01-18T19:45:28.591Z,96992.53
2023-01-18T19:47:55.972Z,97008.59
2023-01-18T19:50:22.590Z,97006.44
2023-01-18T19:52:51.137Z,97007.25
2023-01-18T19:55:17.813Z,97011.06
2023-01-18T19:57:44.814Z,97009.59
2023-01-18T20:00:16.695Z,97014.50
2023-01-18T20:02:43.640Z,97008.69
2023-01-18T20:05:10.529Z,97014.69
2023-01-18T20:07:42.497Z,97024.50
2023-01-18T20:10:20.766Z,97027.38
2023-01-18T20:12:48.282Z,97030.16
2023-01-18T20:15:19.152Z,97027.75
2023-01-18T20:17:45.756Z,97027.97
2023-01-18T20:20:16.134Z,97038.13
2023-01-18T20:22:45.917Z,97041.09
2023-01-18T20:25:28.459Z,97043.31
2023-01-18T20:27:57.929Z,97047.75
2023-01-18T20:30:25.873Z,97052.94
2023-01-18T20:32:52.749Z,97058.66
2023-01-18T20:35:20.229Z,97056.50
2023-01-18T20:37:46.897Z,97056.50
2023-01-18T20:40:16.606Z,97064.91
2023-01-18T20:42:45.728Z,97071.78
2023-01-18T20:45:15.704Z,97064.91
2023-01-18T20:47:42.838Z,97070.22
2023-01-18T20:50:09.870Z,97081.13
2023-01-18T20:52:36.418Z,97080.03
2023-01-18T20:55:03.162Z,97085.72
2023-01-18T20:57:30.576Z,97077.16
2023-01-18T20:59:57.438Z,97078.38
2023-01-18T21:02:24.630Z,97082.78
2023-01-18T21:04:51.251Z,97092.63
2023-01-18T21:07:17.813Z,97094.81
2023-01-18T21:09:44.431Z,97098.88
2023-01-18T21:12:10.982Z,97102.75
2023-01-18T21:14:37.543Z,97108.44
2023-01-18T21:17:04.110Z,97106.75
2023-01-18T21:19:30.836Z,97114.09
2023-01-18T21:21:57.403Z,97113.03
2023-01-18T21:24:24.118Z,97109.75
2023-01-18T21:26:51.037Z,97114.44
2023-01-18T21:29:17.683Z,97115.50
2023-01-18T21:31:44.383Z,97128.75
2023-01-18T21:34:11.085Z,97125.47
2023-01-18T21:36:37.660Z,97131.81
2023-01-18T21:39:04.665Z,97135.25
2023-01-18T21:41:49.649Z,97132.78
2023-01-18T21:44:34.793Z,97135.72
2023-01-18T21:47:01.374Z,97134.31
2023-01-18T21:50:15.678Z,97137.00
2023-01-18T21:52:51.999Z,97139.25
2023-01-18T21:55:18.815Z,97142.56
2023-01-18T21:57:45.392Z,97130.88
2023-01-18T22:00:12.171Z,97148.00
2023-01-18T22:02:38.863Z,97154.13
2023-01-18T22:05:05.812Z,97150.34
2023-01-18T22:07:33.143Z,97152.38
2023-01-18T22:10:04.971Z,97164.66
2023-01-18T22:12:35.293Z,97172.34
2023-01-18T22:15:03.119Z,97178.59
2023-01-18T22:17:29.954Z,97183.69
2023-01-18T22:19:57.258Z,97177.66
2023-01-18T22:22:23.859Z,97183.78
2023-01-18T22:24:50.553Z,97192.41
2023-01-18T22:27:17.082Z,97195.38
2023-01-18T22:29:43.649Z,97192.63
2023-01-18T22:32:10.226Z,97197.84
2023-01-18T22:34:36.813Z,97201.66
2023-01-18T22:37:03.643Z,97204.59
2023-01-18T22:39:30.207Z,97210.16
2023-01-18T22:41:56.782Z,97213.09
2023-01-18T22:44:23.334Z,97210.97
2023-01-18T22:46:49.904Z,97218.31
2023-01-18T22:49:17.032Z,97220.06
2023-01-18T22:51:44.267Z,97217.03
2023-01-18T22:54:10.852Z,97214.53
2023-01-18T22:56:37.513Z,97216.78
2023-01-18T22:59:04.125Z,97219.72
2023-01-18T23:01:31.867Z,97221.38
2023-01-18T23:03:59.359Z,97221.97
2023-01-18T23:06:26.528Z,97221.97
2023-01-18T23:08:54.446Z,97226.72
2023-01-18T23:11:22.012Z,97232.84
2023-01-18T23:14:09.609Z,97230.31
2023-01-18T23:16:54.894Z,97232.84
2023-01-18T23:19:21.673Z,97238.63
2023-01-18T23:21:48.240Z,97238.03
2023-01-18T23:24:14.779Z,97242.84
2023-01-18T23:26:45.021Z,97246.00
2023-01-18T23:29:11.680Z,97245.69
2023-01-18T23:31:38.305Z,97251.09
2023-01-18T23:34:08.469Z,97246.00
2023-01-18T23:36:35.041Z,97253.81
2023-01-18T23:39:20.665Z,97252.31
2023-01-18T23:42:06.999Z,97251.41
2023-01-18T23:44:52.440Z,97253.34
2023-01-18T23:47:40.850Z,97257.22
2023-01-18T23:50:25.907Z,97254.03
2023-01-18T23:53:11.265Z,97267.56
2023-01-18T23:55:43.853Z,97256.94
2023-01-18T23:58:10.424Z,97259.28
